sensor_id;sensor_type;location;lat;lon;timestamp;pressure;altitude;pressure_sealevel;temperature;humidity
46638;BME280;32365;46.938;7.390;2023-07-13T06:42:58;95530.69;;;16.46;100.00
46638;BME280;32365;46.938;7.390;2023-07-13T06:45:24;95531.22;;;16.84;100.00
46638;BME280;32365;46.938;7.390;2023-07-13T06:47:50;95539.31;;;16.93;100.00
46638;BME280;32365;46.938;7.390;2023-07-13T06:50:17;95541.16;;;16.72;100.00
46638;BME280;32365;46.938;7.390;2023-07-13T06:52:43;95541.94;;;16.62;100.00
46638;BME280;32365;46.938;7.390;2023-07-13T06:55:10;95538.00;;;16.59;100.00
46638;BME280;32365;46.938;7.390;2023-07-13T06:57:36;95546.63;;;16.91;100.00
46638;BME280;32365;46.938;7.390;2023-07-13T07:00:05;95548.47;;;17.01;100.00
46638;BME280;32365;46.938;7.390;2023-07-13T07:02:35;95553.13;;;17.14;100.00
46638;BME280;32365;46.938;7.390;2023-07-13T07:05:01;95560.72;;;17.21;100.00
46638;BME280;32365;46.938;7.390;2023-07-13T07:07:28;95555.00;;;16.98;100.00
46638;BME280;32365;46.938;7.390;2023-07-13T07:09:54;95566.78;;;17.01;100.00
46638;BME280;32365;46.938;7.390;2023-07-13T07:12:20;95566.75;;;17.16;100.00
46638;BME280;32365;46.938;7.390;2023-07-13T07:14:47;95567.78;;;17.20;100.00
46638;BME280;32365;46.938;7.390;2023-07-13T07:17:15;95565.94;;;17.26;100.00
46638;BME280;32365;46.938;7.390;2023-07-13T07:19:41;95567.75;;;17.31;100.00
46638;BME280;32365;46.938;7.390;2023-07-13T07:22:08;95565.47;;;16.77;100.00
46638;BME280;32365;46.938;7.390;2023-07-13T07:24:34;95566.00;;;17.00;100.00
46638;BME280;32365;46.938;7.390;2023-07-13T07:27:01;95567.75;;;17.31;100.00
46638;BME280;32365;46.938;7.390;2023-07-13T07:29:27;95565.91;;;17.36;100.00
46638;BME280;32365;46.938;7.390;2023-07-13T07:31:54;95579.00;;;17.42;100.00
46638;BME280;32365;46.938;7.390;2023-07-13T07:34:21;95574.53;;;17.42;100.00
46638;BME280;32365;46.938;7.390;2023-07-13T07:36:48;95575.31;;;17.53;100.00
46638;BME280;32365;46.938;7.390;2023-07-13T07:39:14;95572.66;;;17.63;100.00
46638;BME280;32365;46.938;7.390;2023-07-13T07:41:41;95578.06;;;17.82;100.00
46638;BME280;32365;46.938;7.390;2023-07-13T07:44:08;95587.13;;;18.16;100.00
46638;BME280;32365;46.938;7.390;2023-07-13T07:46:35;95577.66;;;18.20;100.00
46638;BME280;32365;46.938;7.390;2023-07-13T07:49:02;95577.50;;;17.96;100.00
46638;BME280;32365;46.938;7.390;2023-07-13T07:51:29;95580.41;;;17.84;100.00
46638;BME280;32365;46.938;7.390;2023-07-13T07:53:56;95589.50;;;18.07;100.00
46638;BME280;32365;46.938;7.390;2023-07-13T07:56:22;95575.16;;;17.89;100.00
46638;BME280;32365;46.938;7.390;2023-07-13T07:58:49;95574.34;;;17.94;100.00
46638;BME280;32365;46.938;7.390;2023-07-13T08:01:15;95578.78;;;18.49;100.00
46638;BME280;32365;46.938;7.390;2023-07-13T08:03:42;95581.56;;;18.23;100.00
46638;BME280;32365;46.938;7.390;2023-07-13T08:06:08;95582.06;;;18.30;100.00
46638;BME280;32365;46.938;7.390;2023-07-13T08:08:36;95583.91;;;18.24;100.00
46638;BME280;32365;46.938;7.390;2023-07-13T08:11:04;95584.06;;;18.43;100.00
46638;BME280;32365;46.938;7.390;2023-07-13T08:13:30;95590.88;;;18.44;100.00
46638;BME280;32365;46.938;7.390;2023-07-13T08:15:57;95587.16;;;18.85;100.00
46638;BME280;32365;46.938;7.390;2023-07-13T08:18:24;95596.53;;;18.91;95.96
46638;BME280;32365;46.938;7.390;2023-07-13T08:20:50;95596.41;;;19.12;92.96
46638;BME280;32365;46.938;7.390;2023-07-13T08:23:17;95597.91;;;18.84;96.02
46638;BME280;32365;46.938;7.390;2023-07-13T08:25:51;95599.13;;;18.62;94.80
46638;BME280;32365;46.938;7.390;2023-07-13T08:28:18;95591.50;;;18.66;98.57
46638;BME280;32365;46.938;7.390;2023-07-13T08:30:45;95587.69;;;18.48;100.00
46638;BME280;32365;46.938;7.390;2023-07-13T08:33:14;95581.53;;;18.28;100.00
46638;BME280;32365;46.938;7.390;2023-07-13T08:35:40;95582.13;;;18.14;100.00
46638;BME280;32365;46.938;7.390;2023-07-13T08:38:07;95577.69;;;18.55;97.07
46638;BME280;32365;46.938;7.390;2023-07-13T08:40:34;95580.59;;;18.88;96.53
46638;BME280;32365;46.938;7.390;2023-07-13T08:43:02;95590.25;;;19.51;91.30
46638;BME280;32365;46.938;7.390;2023-07-13T08:45:33;95589.19;;;19.77;88.50
46638;BME280;32365;46.938;7.390;2023-07-13T08:48:07;95585.84;;;19.71;93.45
46638;BME280;32365;46.938;7.390;2023-07-13T08:50:46;95589.06;;;19.38;89.78
46638;BME280;32365;46.938;7.390;2023-07-13T08:53:16;95596.09;;;19.43;87.86
46638;BME280;32365;46.938;7.390;2023-07-13T08:55:43;95599.94;;;19.27;87.64
46638;BME280;32365;46.938;7.390;2023-07-13T08:58:12;95597.44;;;19.41;86.12
46638;BME280;32365;46.938;7.390;2023-07-13T09:00:43;95596.31;;;18.88;85.66
46638;BME280;32365;46.938;7.390;2023-07-13T09:03:19;95595.25;;;18.89;87.83
46638;BME280;32365;46.938;7.390;2023-07-13T09:05:51;95605.38;;;19.06;89.11
46638;BME280;32365;46.938;7.390;2023-07-13T09:08:31;95601.88;;;18.81;87.18
46638;BME280;32365;46.938;7.390;2023-07-13T09:11:05;95601.81;;;18.57;89.61
46638;BME280;32365;46.938;7.390;2023-07-13T09:13:43;95600.19;;;18.61;92.29
46638;BME280;32365;46.938;7.390;2023-07-13T09:16:14;95605.72;;;18.54;89.15
46638;BME280;32365;46.938;7.390;2023-07-13T09:18:42;95604.44;;;18.52;92.11
46638;BME280;32365;46.938;7.390;2023-07-13T09:21:13;95598.44;;;18.51;94.10
46638;BME280;32365;46.938;7.390;2023-07-13T09:23:42;95606.19;;;18.67;91.95
46638;BME280;32365;46.938;7.390;2023-07-13T09:26:13;95604.16;;;18.58;91.70
46638;BME280;32365;46.938;7.390;2023-07-13T09:28:42;95600.59;;;18.79;89.91
46638;BME280;32365;46.938;7.390;2023-07-13T09:31:13;95611.75;;;19.00;93.46
46638;BME280;32365;46.938;7.390;2023-07-13T09:33:40;95610.78;;;18.85;91.74
46638;BME280;32365;46.938;7.390;2023-07-13T09:36:18;95618.88;;;18.94;87.40
46638;BME280;32365;46.938;7.390;2023-07-13T09:38:45;95621.31;;;19.15;86.84
46638;BME280;32365;46.938;7.390;2023-07-13T09:41:19;95621.41;;;19.34;83.75
46638;BME280;32365;46.938;7.390;2023-07-13T09:44:06;95625.22;;;19.17;84.89
46638;BME280;32365;46.938;7.390;2023-07-13T09:46:34;95622.72;;;19.02;83.98
46638;BME280;32365;46.938;7.390;2023-07-13T09:49:00;95613.44;;;19.44;84.11
46638;BME280;32365;46.938;7.390;2023-07-13T09:51:27;95616.75;;;19.26;85.62
46638;BME280;32365;46.938;7.390;2023-07-13T09:53:54;95615.38;;;19.58;85.44
46638;BME280;32365;46.938;7.390;2023-07-13T09:56:21;95619.81;;;20.49;81.53
46638;BME280;32365;46.938;7.390;2023-07-13T09:58:48;95619.22;;;20.90;77.03
46638;BME280;32365;46.938;7.390;2023-07-13T10:01:15;95617.34;;;21.85;77.22
46638;BME280;32365;46.938;7.390;2023-07-13T10:03:56;95615.69;;;21.61;75.82
46638;BME280;32365;46.938;7.390;2023-07-13T10:06:23;95621.88;;;22.07;73.77
46638;BME280;32365;46.938;7.390;2023-07-13T10:08:55;95628.31;;;24.23;63.23
46638;BME280;32365;46.938;7.390;2023-07-13T10:11:26;95628.44;;;25.24;59.06
46638;BME280;32365;46.938;7.390;2023-07-13T10:13:55;95628.56;;;25.45;57.43
46638;BME280;32365;46.938;7.390;2023-07-13T10:16:25;95634.53;;;25.72;60.67
46638;BME280;32365;46.938;7.390;2023-07-13T10:18:55;95626.75;;;27.24;52.54
46638;BME280;32365;46.938;7.390;2023-07-13T10:21:27;95619.88;;;27.23;48.17
46638;BME280;32365;46.938;7.390;2023-07-13T10:23:56;95629.19;;;27.29;49.66
46638;BME280;32365;46.938;7.390;2023-07-13T10:26:25;95617.16;;;26.98;48.73
46638;BME280;32365;46.938;7.390;2023-07-13T10:28:54;95615.09;;;28.11;41.01
46638;BME280;32365;46.938;7.390;2023-07-13T10:31:23;95613.97;;;27.04;49.69
46638;BME280;32365;46.938;7.390;2023-07-13T10:33:50;95615.44;;;26.17;50.40
46638;BME280;32365;46.938;7.390;2023-07-13T10:36:34;95617.66;;;26.36;48.10
46638;BME280;32365;46.938;7.390;2023-07-13T10:39:05;95618.72;;;26.14;49.63
46638;BME280;32365;46.938;7.390;2023-07-13T10:41:37;95609.03;;;26.82;49.04
46638;BME280;32365;46.938;7.390;2023-07-13T10:44:13;95614.56;;;26.89;47.71
46638;BME280;32365;46.938;7.390;2023-07-13T10:46:44;95612.16;;;27.30;45.37
46638;BME280;32365;46.938;7.390;2023-07-13T10:49:12;95610.31;;;25.82;44.71
46638;BME280;32365;46.938;7.390;2023-07-13T10:51:39;95607.56;;;26.30;48.36
46638;BME280;32365;46.938;7.390;2023-07-13T10:54:20;95614.06;;;26.11;48.00
46638;BME280;32365;46.938;7.390;2023-07-13T10:56:53;95611.47;;;27.33;46.81
46638;BME280;32365;46.938;7.390;2023-07-13T10:59:24;95610.44;;;28.49;45.47
46638;BME280;32365;46.938;7.390;2023-07-13T11:01:56;95608.69;;;30.46;40.64
46638;BME280;32365;46.938;7.390;2023-07-13T11:04:25;95610.56;;;30.45;40.09
46638;BME280;32365;46.938;7.390;2023-07-13T11:06:57;95606.00;;;29.90;39.39
46638;BME280;32365;46.938;7.390;2023-07-13T11:09:36;95610.81;;;30.36;39.81
46638;BME280;32365;46.938;7.390;2023-07-13T11:12:10;95603.56;;;30.01;37.82
46638;BME280;32365;46.938;7.390;2023-07-13T11:15:02;95605.38;;;29.01;38.90
46638;BME280;32365;46.938;7.390;2023-07-13T11:17:45;95613.44;;;25.84;52.29
46638;BME280;32365;46.938;7.390;2023-07-13T11:20:37;95611.66;;;27.03;48.66
46638;BME280;32365;46.938;7.390;2023-07-13T11:23:29;95609.06;;;26.73;45.52
46638;BME280;32365;46.938;7.390;2023-07-13T11:25:56;95619.63;;;28.93;42.72
46638;BME280;32365;46.938;7.390;2023-07-13T11:28:24;95620.06;;;29.55;38.82
46638;BME280;32365;46.938;7.390;2023-07-13T11:31:01;95609.66;;;30.37;36.67
46638;BME280;32365;46.938;7.390;2023-07-13T11:33:49;95608.94;;;31.19;34.49
46638;BME280;32365;46.938;7.390;2023-07-13T11:36:18;95599.63;;;30.50;34.28
46638;BME280;32365;46.938;7.390;2023-07-13T11:38:55;95606.91;;;31.59;33.29
46638;BME280;32365;46.938;7.390;2023-07-13T11:41:25;95600.13;;;30.36;38.00
46638;BME280;32365;46.938;7.390;2023-07-13T11:43:54;95604.03;;;31.01;35.57
46638;BME280;32365;46.938;7.390;2023-07-13T11:46:23;95598.22;;;31.66;32.62
46638;BME280;32365;46.938;7.390;2023-07-13T11:48:52;95595.25;;;31.98;33.99
46638;BME280;32365;46.938;7.390;2023-07-13T11:51:21;95595.59;;;31.92;35.71
46638;BME280;32365;46.938;7.390;2023-07-13T11:53:51;95589.91;;;31.98;32.58
46638;BME280;32365;46.938;7.390;2023-07-13T11:56:18;95605.22;;;32.58;28.98
46638;BME280;32365;46.938;7.390;2023-07-13T11:58:48;95596.66;;;32.45;31.19
46638;BME280;32365;46.938;7.390;2023-07-13T12:01:19;95593.38;;;31.71;32.55
46638;BME280;32365;46.938;7.390;2023-07-13T12:03:48;95582.50;;;31.14;34.02
46638;BME280;32365;46.938;7.390;2023-07-13T12:06:26;95580.00;;;30.23;32.68
46638;BME280;32365;46.938;7.390;2023-07-13T12:08:56;95576.34;;;30.90;35.81
46638;BME280;32365;46.938;7.390;2023-07-13T12:11:23;95572.56;;;30.52;34.15
46638;BME280;32365;46.938;7.390;2023-07-13T12:13:50;95587.44;;;28.29;35.10
46638;BME280;32365;46.938;7.390;2023-07-13T12:16:23;95582.81;;;27.88;39.75
46638;BME280;32365;46.938;7.390;2023-07-13T12:18:52;95578.03;;;29.68;36.65
46638;BME280;32365;46.938;7.390;2023-07-13T12:21:19;95575.88;;;30.25;34.85
46638;BME280;32365;46.938;7.390;2023-07-13T12:23:50;95583.81;;;28.08;38.63
46638;BME280;32365;46.938;7.390;2023-07-13T12:26:18;95583.13;;;28.24;39.83
46638;BME280;32365;46.938;7.390;2023-07-13T12:28:48;95585.56;;;27.92;38.65
46638;BME280;32365;46.938;7.390;2023-07-13T12:31:24;95582.47;;;28.02;39.57
46638;BME280;32365;46.938;7.390;2023-07-13T12:33:57;95582.16;;;26.96;40.50
46638;BME280;32365;46.938;7.390;2023-07-13T12:36:24;95575.25;;;26.49;41.97
46638;BME280;32365;46.938;7.390;2023-07-13T12:38:52;95569.91;;;26.70;42.98
46638;BME280;32365;46.938;7.390;2023-07-13T12:41:18;95572.91;;;26.47;41.45
46638;BME280;32365;46.938;7.390;2023-07-13T12:43:46;95569.28;;;27.19;39.96
46638;BME280;32365;46.938;7.390;2023-07-13T12:46:18;95568.88;;;27.54;41.23
46638;BME280;32365;46.938;7.390;2023-07-13T12:48:48;95562.63;;;28.00;39.37
46638;BME280;32365;46.938;7.390;2023-07-13T12:51:15;95556.38;;;28.61;36.22
46638;BME280;32365;46.938;7.390;2023-07-13T12:53:47;95552.94;;;29.21;35.57
46638;BME280;32365;46.938;7.390;2023-07-13T12:56:19;95559.56;;;30.31;33.59
46638;BME280;32365;46.938;7.390;2023-07-13T12:58:48;95553.75;;;30.25;34.51
46638;BME280;32365;46.938;7.390;2023-07-13T13:01:20;95558.94;;;30.57;35.63
46638;BME280;32365;46.938;7.390;2023-07-13T13:03:49;95562.69;;;31.42;31.54
46638;BME280;32365;46.938;7.390;2023-07-13T13:06:25;95571.03;;;31.63;34.17
46638;BME280;32365;46.938;7.390;2023-07-13T13:08:53;95574.75;;;32.09;30.41
46638;BME280;32365;46.938;7.390;2023-07-13T13:11:23;95558.81;;;32.84;28.11
46638;BME280;32365;46.938;7.390;2023-07-13T13:13:51;95561.25;;;32.63;30.07
46638;BME280;32365;46.938;7.390;2023-07-13T13:16:21;95561.56;;;32.58;29.59
46638;BME280;32365;46.938;7.390;2023-07-13T13:18:48;95564.88;;;32.13;29.47
46638;BME280;32365;46.938;7.390;2023-07-13T13:21:16;95565.72;;;31.90;29.62
46638;BME280;32365;46.938;7.390;2023-07-13T13:23:43;95566.06;;;32.84;27.55
46638;BME280;32365;46.938;7.390;2023-07-13T13:26:12;95567.34;;;31.99;29.16
46638;BME280;32365;46.938;7.390;2023-07-13T13:28:40;95567.78;;;32.65;29.28
46638;BME280;32365;46.938;7.390;2023-07-13T13:31:07;95555.16;;;31.24;28.54
46638;BME280;32365;46.938;7.390;2023-07-13T13:33:34;95549.22;;;31.11;30.48
46638;BME280;32365;46.938;7.390;2023-07-13T13:36:01;95573.72;;;28.99;33.79
46638;BME280;32365;46.938;7.390;2023-07-13T13:38:29;95554.84;;;29.53;35.34
46638;BME280;32365;46.938;7.390;2023-07-13T13:40:55;95559.63;;;28.83;34.21
46638;BME280;32365;46.938;7.390;2023-07-13T13:43:23;95555.97;;;30.23;32.72
46638;BME280;32365;46.938;7.390;2023-07-13T13:45:55;95557.56;;;31.56;31.22
46638;BME280;32365;46.938;7.390;2023-07-13T13:48:28;95564.16;;;32.16;29.78
46638;BME280;32365;46.938;7.390;2023-07-13T13:50:56;95568.97;;;32.34;28.06
46638;BME280;32365;46.938;7.390;2023-07-13T13:53:22;95568.84;;;32.91;27.44
46638;BME280;32365;46.938;7.390;2023-07-13T13:55:50;95567.22;;;33.28;27.83
46638;BME280;32365;46.938;7.390;2023-07-13T13:58:18;95565.91;;;33.07;26.31
46638;BME280;32365;46.938;7.390;2023-07-13T14:00:45;95565.84;;;33.00;26.35
46638;BME280;32365;46.938;7.390;2023-07-13T14:03:16;95562.75;;;33.95;26.83
46638;BME280;32365;46.938;7.390;2023-07-13T14:05:43;95566.47;;;34.61;24.65
46638;BME280;32365;46.938;7.390;2023-07-13T14:08:12;95575.63;;;33.23;25.42
46638;BME280;32365;46.938;7.390;2023-07-13T14:10:40;95574.84;;;31.62;27.09
46638;BME280;32365;46.938;7.390;2023-07-13T14:13:16;95575.56;;;31.32;30.10
46638;BME280;32365;46.938;7.390;2023-07-13T14:15:44;95567.81;;;32.69;27.73
46638;BME280;32365;46.938;7.390;2023-07-13T14:18:10;95559.97;;;33.28;26.78
46638;BME280;32365;46.938;7.390;2023-07-13T14:20:44;95566.06;;;33.81;23.01
46638;BME280;32365;46.938;7.390;2023-07-13T14:23:12;95560.16;;;34.13;23.89
46638;BME280;32365;46.938;7.390;2023-07-13T14:25:40;95558.78;;;34.56;23.27
46638;BME280;32365;46.938;7.390;2023-07-13T14:28:19;95556.13;;;34.77;23.68
46638;BME280;32365;46.938;7.390;2023-07-13T14:30:46;95558.53;;;34.01;22.63
46638;BME280;32365;46.938;7.390;2023-07-13T14:33:13;95561.72;;;33.58;24.54
46638;BME280;32365;46.938;7.390;2023-07-13T14:35:39;95553.03;;;34.64;23.65
46638;BME280;32365;46.938;7.390;2023-07-13T14:38:10;95567.63;;;34.67;22.25
46638;BME280;32365;46.938;7.390;2023-07-13T14:40:37;95557.63;;;34.57;23.18
46638;BME280;32365;46.938;7.390;2023-07-13T14:43:04;95551.97;;;35.70;21.73
46638;BME280;32365;46.938;7.390;2023-07-13T14:45:33;95547.78;;;35.48;22.11
46638;BME280;32365;46.938;7.390;2023-07-13T14:48:01;95544.31;;;35.36;20.24
46638;BME280;32365;46.938;7.390;2023-07-13T14:50:31;95548.09;;;34.88;23.72
46638;BME280;32365;46.938;7.390;2023-07-13T14:52:58;95538.25;;;34.04;21.52
46638;BME280;32365;46.938;7.390;2023-07-13T14:55:25;95548.13;;;35.10;21.77
46638;BME280;32365;46.938;7.390;2023-07-13T14:57:52;95531.91;;;33.74;20.82
46638;BME280;32365;46.938;7.390;2023-07-13T15:00:21;95544.94;;;34.43;22.33
46638;BME280;32365;46.938;7.390;2023-07-13T15:02:50;95536.91;;;34.57;23.56
46638;BME280;32365;46.938;7.390;2023-07-13T15:05:19;95535.19;;;34.13;21.87
46638;BME280;32365;46.938;7.390;2023-07-13T15:07:47;95540.63;;;34.23;22.69
46638;BME280;32365;46.938;7.390;2023-07-13T15:10:18;95545.63;;;33.10;25.40
46638;BME280;32365;46.938;7.390;2023-07-13T15:12:47;95545.66;;;32.76;26.41
46638;BME280;32365;46.938;7.390;2023-07-13T15:15:14;95542.97;;;32.72;24.11
46638;BME280;32365;46.938;7.390;2023-07-13T15:17:41;95538.50;;;32.83;22.18
46638;BME280;32365;46.938;7.390;2023-07-13T15:20:28;95550.00;;;32.19;24.19
46638;BME280;32365;46.938;7.390;2023-07-13T15:22:56;95549.09;;;32.08;25.16
46638;BME280;32365;46.938;7.390;2023-07-13T15:25:25;95541.63;;;32.21;25.75
46638;BME280;32365;46.938;7.390;2023-07-13T15:27:55;95546.72;;;31.99;27.20
46638;BME280;32365;46.938;7.390;2023-07-13T15:30:22;95546.34;;;32.01;25.38
46638;BME280;32365;46.938;7.390;2023-07-13T15:32:49;95546.22;;;32.54;24.97
46638;BME280;32365;46.938;7.390;2023-07-13T15:35:16;95547.22;;;32.39;27.86
46638;BME280;32365;46.938;7.390;2023-07-13T15:37:44;95537.38;;;30.89;26.43
46638;BME280;32365;46.938;7.390;2023-07-13T15:40:11;95543.88;;;31.61;27.94
46638;BME280;32365;46.938;7.390;2023-07-13T15:42:38;95540.44;;;30.09;29.42
46638;BME280;32365;46.938;7.390;2023-07-13T15:45:15;95533.25;;;29.42;30.93
46638;BME280;32365;46.938;7.390;2023-07-13T15:47:42;95531.63;;;29.37;30.20
46638;BME280;32365;46.938;7.390;2023-07-13T15:50:12;95537.44;;;30.30;28.85
46638;BME280;32365;46.938;7.390;2023-07-13T15:52:39;95534.91;;;29.82;29.80
46638;BME280;32365;46.938;7.390;2023-07-13T15:55:10;95545.09;;;29.28;29.22
46638;BME280;32365;46.938;7.390;2023-07-13T15:57:37;95544.66;;;28.09;29.77
46638;BME280;32365;46.938;7.390;2023-07-13T16:00:15;95539.81;;;28.68;31.11
46638;BME280;32365;46.938;7.390;2023-07-13T16:02:42;95539.44;;;28.25;29.63
46638;BME280;32365;46.938;7.390;2023-07-13T16:05:09;95543.84;;;27.68;29.53
46638;BME280;32365;46.938;7.390;2023-07-13T16:07:35;95534.41;;;26.74;32.11
46638;BME280;32365;46.938;7.390;2023-07-13T16:10:02;95540.13;;;27.10;33.51
46638;BME280;32365;46.938;7.390;2023-07-13T16:12:29;95533.72;;;27.24;32.64
46638;BME280;32365;46.938;7.390;2023-07-13T16:14:55;95523.53;;;27.13;35.09
46638;BME280;32365;46.938;7.390;2023-07-13T16:17:23;95531.75;;;26.74;35.29
46638;BME280;32365;46.938;7.390;2023-07-13T16:19:50;95522.22;;;26.40;34.67
46638;BME280;32365;46.938;7.390;2023-07-13T16:22:18;95522.50;;;26.81;32.13
46638;BME280;32365;46.938;7.390;2023-07-13T16:24:46;95512.56;;;26.56;35.22
46638;BME280;32365;46.938;7.390;2023-07-13T16:27:12;95515.91;;;26.66;35.55
46638;BME280;32365;46.938;7.390;2023-07-13T16:29:39;95516.84;;;26.06;35.37
46638;BME280;32365;46.938;7.390;2023-07-13T16:32:09;95515.25;;;25.72;35.26
46638;BME280;32365;46.938;7.390;2023-07-13T16:34:39;95522.47;;;24.76;36.42
46638;BME280;32365;46.938;7.390;2023-07-13T16:37:13;95517.94;;;24.68;37.24
46638;BME280;32365;46.938;7.390;2023-07-13T16:39:41;95520.13;;;24.83;37.26
46638;BME280;32365;46.938;7.390;2023-07-13T16:42:09;95523.25;;;24.68;38.99
46638;BME280;32365;46.938;7.390;2023-07-13T16:44:36;95525.56;;;25.26;34.62
46638;BME280;32365;46.938;7.390;2023-07-13T16:47:08;95527.59;;;25.29;36.45
46638;BME280;32365;46.938;7.390;2023-07-13T16:49:39;95520.63;;;25.15;36.98
46638;BME280;32365;46.938;7.390;2023-07-13T16:52:05;95532.38;;;24.97;37.28
46638;BME280;32365;46.938;7.390;2023-07-13T16:54:34;95525.38;;;24.92;37.61
46638;BME280;32365;46.938;7.390;2023-07-13T16:57:02;95539.34;;;25.10;36.02
46638;BME280;32365;46.938;7.390;2023-07-13T16:59:32;95535.69;;;24.85;38.90
46638;BME280;32365;46.938;7.390;2023-07-13T17:01:59;95531.66;;;24.52;37.40
46638;BME280;32365;46.938;7.390;2023-07-13T17:04:27;95531.47;;;24.66;38.50
46638;BME280;32365;46.938;7.390;2023-07-13T17:06:55;95537.44;;;24.37;39.87
46638;BME280;32365;46.938;7.390;2023-07-13T17:09:22;95536.06;;;24.39;38.10
46638;BME280;32365;46.938;7.390;2023-07-13T17:11:50;95524.81;;;24.51;38.60
46638;BME280;32365;46.938;7.390;2023-07-13T17:14:19;95536.22;;;24.08;38.37
46638;BME280;32365;46.938;7.390;2023-07-13T17:16:48;95536.84;;;24.22;39.93
46638;BME280;32365;46.938;7.390;2023-07-13T17:19:16;95529.81;;;24.26;39.43
46638;BME280;32365;46.938;7.390;2023-07-13T17:21:43;95532.47;;;24.00;39.64
46638;BME280;32365;46.938;7.390;2023-07-13T17:24:17;95534.56;;;23.63;37.64
46638;BME280;32365;46.938;7.390;2023-07-13T17:26:44;95535.22;;;23.77;39.24
46638;BME280;32365;46.938;7.390;2023-07-13T17:29:10;95539.34;;;23.61;41.93
46638;BME280;32365;46.938;7.390;2023-07-13T17:31:37;95535.22;;;23.77;40.75
46638;BME280;32365;46.938;7.390;2023-07-13T17:34:04;95541.00;;;23.97;39.38
46638;BME280;32365;46.938;7.390;2023-07-13T17:36:31;95544.34;;;23.71;39.48
46638;BME280;32365;46.938;7.390;2023-07-13T17:38:59;95541.88;;;23.66;38.59
46638;BME280;32365;46.938;7.390;2023-07-13T17:41:30;95543.59;;;23.71;40.38
46638;BME280;32365;46.938;7.390;2023-07-13T17:43:57;95541.00;;;23.39;40.74
46638;BME280;32365;46.938;7.390;2023-07-13T17:46:27;95545.53;;;23.39;42.26
46638;BME280;32365;46.938;7.390;2023-07-13T17:48:54;95543.31;;;23.32;39.68
46638;BME280;32365;46.938;7.390;2023-07-13T17:51:21;95548.47;;;23.37;41.16
46638;BME280;32365;46.938;7.390;2023-07-13T17:53:48;95542.91;;;23.16;43.91
46638;BME280;32365;46.938;7.390;2023-07-13T17:56:15;95551.22;;;23.23;41.80
46638;BME280;32365;46.938;7.390;2023-07-13T17:58:43;95547.50;;;23.24;42.16
46638;BME280;32365;46.938;7.390;2023-07-13T18:01:13;95551.53;;;23.30;41.91
46638;BME280;32365;46.938;7.390;2023-07-13T18:03:42;95549.91;;;23.12;45.36
46638;BME280;32365;46.938;7.390;2023-07-13T18:06:12;95551.84;;;22.97;42.85
46638;BME280;32365;46.938;7.390;2023-07-13T18:08:45;95555.81;;;23.17;41.27
46638;BME280;32365;46.938;7.390;2023-07-13T18:11:11;95553.94;;;23.09;41.05
46638;BME280;32365;46.938;7.390;2023-07-13T18:13:39;95553.44;;;23.07;46.09
46638;BME280;32365;46.938;7.390;2023-07-13T18:16:13;95546.66;;;22.92;42.74
46638;BME280;32365;46.938;7.390;2023-07-13T18:18:40;95546.22;;;23.21;41.26
46638;BME280;32365;46.938;7.390;2023-07-13T18:21:07;95547.53;;;23.42;44.79
46638;BME280;32365;46.938;7.390;2023-07-13T18:23:34;95536.97;;;23.01;42.01
46638;BME280;32365;46.938;7.390;2023-07-13T18:26:00;95549.75;;;23.17;43.68
46638;BME280;32365;46.938;7.390;2023-07-13T18:28:27;95546.66;;;22.60;41.38
46638;BME280;32365;46.938;7.390;2023-07-13T18:30:55;95547.09;;;22.54;44.66
46638;BME280;32365;46.938;7.390;2023-07-13T18:33:26;95548.84;;;22.44;44.27
46638;BME280;32365;46.938;7.390;2023-07-13T18:35:54;95546.66;;;22.24;45.48
46638;BME280;32365;46.938;7.390;2023-07-13T18:38:22;95539.47;;;22.16;45.15
46638;BME280;32365;46.938;7.390;2023-07-13T18:40:50;95543.06;;;22.20;43.88
46638;BME280;32365;46.938;7.390;2023-07-13T18:43:17;95548.06;;;22.07;46.63
46638;BME280;32365;46.938;7.390;2023-07-13T18:45:43;95550.47;;;21.95;45.86
46638;BME280;32365;46.938;7.390;2023-07-13T18:48:13;95558.78;;;21.74;47.80
46638;BME280;32365;46.938;7.390;2023-07-13T18:50:45;95554.06;;;21.57;48.83
46638;BME280;32365;46.938;7.390;2023-07-13T18:53:13;95560.81;;;21.49;51.12
46638;BME280;32365;46.938;7.390;2023-07-13T18:55:40;95565.88;;;21.46;52.18
46638;BME280;32365;46.938;7.390;2023-07-13T18:58:07;95559.25;;;21.34;54.75
46638;BME280;32365;46.938;7.390;2023-07-13T19:00:34;95551.16;;;21.31;52.51
46638;BME280;32365;46.938;7.390;2023-07-13T19:03:01;95553.84;;;20.98;49.10
46638;BME280;32365;46.938;7.390;2023-07-13T19:05:31;95555.50;;;20.94;52.03
46638;BME280;32365;46.938;7.390;2023-07-13T19:08:00;95551.59;;;20.91;52.65
46638;BME280;32365;46.938;7.390;2023-07-13T19:10:29;95556.94;;;20.67;54.02
46638;BME280;32365;46.938;7.390;2023-07-13T19:12:57;95561.06;;;20.73;49.67
46638;BME280;32365;46.938;7.390;2023-07-13T19:15:25;95566.06;;;20.74;53.35
46638;BME280;32365;46.938;7.390;2023-07-13T19:17:56;95558.22;;;20.69;55.98
46638;BME280;32365;46.938;7.390;2023-07-13T19:20:24;95563.31;;;20.46;52.86
46638;BME280;32365;46.938;7.390;2023-07-13T19:22:53;95576.47;;;20.27;56.85
46638;BME280;32365;46.938;7.390;2023-07-13T19:25:22;95570.47;;;20.03;57.92
46638;BME280;32365;46.938;7.390;2023-07-13T19:27:51;95560.41;;;20.10;57.50
46638;BME280;32365;46.938;7.390;2023-07-13T19:30:22;95578.75;;;19.96;57.86
46638;BME280;32365;46.938;7.390;2023-07-13T19:32:48;95572.69;;;19.71;58.78
46638;BME280;32365;46.938;7.390;2023-07-13T19:35:16;95574.19;;;19.77;59.30
46638;BME280;32365;46.938;7.390;2023-07-13T19:37:43;95572.38;;;19.78;58.24
46638;BME280;32365;46.938;7.390;2023-07-13T19:40:20;95578.28;;;19.64;58.64
46638;BME280;32365;46.938;7.390;2023-07-13T19:42:48;95587.22;;;19.63;58.26
46638;BME280;32365;46.938;7.390;2023-07-13T19:45:17;95582.19;;;19.43;58.78
46638;BME280;32365;46.938;7.390;2023-07-13T19:47:44;95594.44;;;19.28;59.72
46638;BME280;32365;46.938;7.390;2023-07-13T19:50:12;95599.44;;;18.90;58.60
46638;BME280;32365;46.938;7.390;2023-07-13T19:52:43;95603.91;;;18.89;60.70